Bookmark and Share
Track history (hours):
 

Evnia

Last reported at 2014-Feb-28 10:33 UTC. Time now 2014-Apr-18 18:24 UTC.
Position N 01°12' E 103°54'.
Warning: this ship's position is 49 days out of date.

Length 190 m; draft 6.4 m.

Type: Cargo ship. MMSI: 209279000.

NotesDate/timePositionNaut miles runAvg speedWind from/ knotsBaromVisibWave heightAir tempDewpointWater temp
2014-Feb-28 10:33N 01°12' E 103°54'1313.4
2014-Feb-28 09:33N 01°05' E 103°43'10 9.9
2014-Feb-28 08:33N 01°07' E 103°33'9 9.2
2014-Feb-28 07:33N 01°11' E 103°41'1 1.1
2014-Feb-28 06:31N 01°12' E 103°42'0 0.1
2014-Feb-28 05:33N 01°12' E 103°42'0 0.2
2014-Feb-28 04:31N 01°12' E 103°42'0 0.1
2014-Feb-28 03:29N 01°12' E 103°42'0 0.1
2014-Feb-28 02:25N 01°12' E 103°42'0 0.1
2014-Feb-28 01:30N 01°12' E 103°42'0 0.0
2014-Feb-28 00:31N 01°12' E 103°42'0 0.0
2014-Feb-27 23:29N 01°12' E 103°42'0 0.0
2014-Feb-27 22:30N 01°12' E 103°42'0 0.0
2014-Feb-27 21:32N 01°12' E 103°42'0 0.0
2014-Feb-27 19:30N 01°12' E 103°42'0 0.0
2014-Feb-27 18:28N 01°12' E 103°42'0 0.0
2014-Feb-27 17:30N 01°12' E 103°42'0 0.0
2014-Feb-27 16:26N 01°12' E 103°42'0 0.0
2014-Feb-27 15:25N 01°12' E 103°42'0 0.0
2014-Feb-27 14:32N 01°12' E 103°42'0 0.0
2014-Feb-27 13:32N 01°12' E 103°42'0 0.1
2014-Feb-27 12:31N 01°12' E 103°42'0 0.1
2014-Feb-27 11:26N 01°12' E 103°42'0 0.1
2014-Feb-27 10:31N 01°12' E 103°42'0 0.0
2014-Feb-27 09:29N 01°12' E 103°42'0 0.2
2014-Feb-27 08:30N 01°12' E 103°42'0 0.0
2014-Feb-27 07:33N 01°12' E 103°42'0 0.0
2014-Feb-27 06:26N 01°12' E 103°42'0 0.0
2014-Feb-27 05:31N 01°12' E 103°42'0 0.0
2014-Feb-27 04:32N 01°12' E 103°42'0 0.1
2014-Feb-27 03:31N 01°12' E 103°42'0 0.1
2014-Feb-27 02:34N 01°12' E 103°42'1 1.5
2014-Feb-27 01:33N 01°12' E 103°40'5 5.2
2014-Feb-27 00:34N 01°13' E 103°35'5 4.6
2014-Feb-26 23:32N 01°11' E 103°31'6 5.5
2014-Feb-26 22:31N 01°11' E 103°25'4 1.0
2014-Feb-26 18:32N 01°13' E 103°28'1111.5
2014-Feb-26 17:33N 01°13' E 103°40'2 1.6
2014-Feb-26 16:26N 01°15' E 103°39'0 0.0
2014-Feb-26 15:31N 01°15' E 103°39'0 0.0
2014-Feb-26 14:31N 01°15' E 103°39'0 0.0
2014-Feb-26 13:33N 01°15' E 103°39'0 0.0
2014-Feb-26 12:31N 01°15' E 103°39'0 0.0
2014-Feb-26 11:32N 01°15' E 103°39'0 0.0
2014-Feb-26 10:32N 01°15' E 103°39'0 0.0
2014-Feb-26 09:30N 01°15' E 103°39'0 0.1
2014-Feb-26 08:30N 01°15' E 103°39'0 0.0
2014-Feb-26 07:32N 01°15' E 103°39'0 0.1
2014-Feb-26 06:33N 01°15' E 103°39'0 0.0
2014-Feb-26 05:31N 01°15' E 103°39'0 0.0
2014-Feb-26 04:24N 01°15' E 103°39'0 0.1
2014-Feb-26 03:32N 01°15' E 103°39'2 2.2
2014-Feb-26 02:33N 01°17' E 103°39'1 1.1
2014-Feb-26 01:32N 01°18' E 103°39'0 0.0
2014-Feb-26 00:32N 01°18' E 103°39'0 0.0
2014-Feb-25 23:29N 01°18' E 103°39'0 0.0
2014-Feb-25 22:31N 01°18' E 103°39'0 0.0
2014-Feb-25 21:31N 01°18' E 103°39'0 0.0
2014-Feb-25 20:31N 01°18' E 103°39'0 0.0
2014-Feb-25 19:25N 01°18' E 103°39'0 0.0
2014-Feb-25 18:31N 01°18' E 103°39'0 0.0
2014-Feb-25 17:31N 01°18' E 103°39'0 0.0
2014-Feb-25 16:31N 01°18' E 103°39'0 0.0
2014-Feb-25 15:31N 01°18' E 103°39'0 0.0
2014-Feb-25 14:31N 01°18' E 103°39'0 0.0
2014-Feb-25 13:31N 01°18' E 103°39'0 0.0
2014-Feb-25 12:31N 01°18' E 103°39'0 0.0
2014-Feb-25 11:31N 01°18' E 103°39'0 0.0
2014-Feb-25 10:27N 01°18' E 103°39'0 0.0
2014-Feb-25 09:33N 01°18' E 103°39'0 0.0
2014-Feb-25 08:33N 01°18' E 103°39'0 0.0
2014-Feb-25 07:30N 01°18' E 103°39'0 0.0
2014-Feb-25 06:33N 01°18' E 103°39'0 0.0
2014-Feb-25 05:27N 01°18' E 103°39'0 0.0
2014-Feb-25 04:32N 01°18' E 103°39'0 0.0
2014-Feb-25 03:32N 01°18' E 103°39'0 0.0
2014-Feb-25 02:32N 01°18' E 103°39'0 0.0
2014-Feb-25 01:32N 01°18' E 103°39'0 0.0
2014-Feb-25 00:31N 01°18' E 103°39'0 0.0
2014-Feb-24 23:17N 01°18' E 103°39'0 0.0
2014-Feb-24 22:31N 01°18' E 103°39'0 0.0
2014-Feb-24 21:29N 01°18' E 103°39'0 0.0
2014-Feb-24 20:32N 01°18' E 103°39'0 0.0
2014-Feb-24 19:31N 01°18' E 103°39'0 0.0
2014-Feb-24 18:32N 01°18' E 103°39'0 0.0
2014-Feb-24 17:29N 01°18' E 103°39'0 0.0
2014-Feb-24 16:25N 01°18' E 103°39'0 0.0
2014-Feb-24 15:32N 01°18' E 103°39'0 0.0
2014-Feb-24 14:29N 01°18' E 103°39'0 0.0
2014-Feb-24 13:32N 01°18' E 103°39'0 0.0
2014-Feb-24 12:28N 01°18' E 103°39'0 0.0
2014-Feb-24 11:32N 01°18' E 103°39'0 0.0
2014-Feb-24 10:31N 01°18' E 103°39'0 0.0
2014-Feb-24 09:31N 01°18' E 103°39'0 0.0
2014-Feb-24 08:31N 01°18' E 103°39'0 0.0
2014-Feb-24 07:25N 01°18' E 103°39'0 0.0
2014-Feb-24 06:31N 01°18' E 103°39'0 0.0
2014-Feb-24 05:31N 01°18' E 103°39'0 0.0
2014-Feb-24 04:31N 01°18' E 103°39'0 0.0
2014-Feb-24 03:31N 01°18' E 103°39'0 0.0
2014-Feb-24 02:31N 01°18' E 103°39'0 0.0
2014-Feb-24 01:28N 01°18' E 103°39'0 0.0
2014-Feb-24 00:31N 01°18' E 103°39'0 0.0
2014-Feb-23 23:28N 01°18' E 103°39'0 0.0
2014-Feb-23 22:30N 01°18' E 103°39'0 0.0
2014-Feb-23 21:30N 01°18' E 103°39'0 0.0
2014-Feb-23 20:33N 01°18' E 103°39'0 0.0
2014-Feb-23 19:33N 01°18' E 103°39'0 0.0
2014-Feb-23 18:33N 01°18' E 103°39'0 0.0
2014-Feb-23 17:33N 01°18' E 103°39'0 0.0
2014-Feb-23 16:33N 01°18' E 103°39'0 0.0
2014-Feb-23 15:33N 01°18' E 103°39'0 0.0
2014-Feb-23 14:32N 01°18' E 103°39'0 0.0
2014-Feb-23 13:29N 01°18' E 103°39'0 0.0
2014-Feb-23 12:33N 01°18' E 103°39'0 0.0
2014-Feb-23 11:29N 01°18' E 103°39'0 0.0
2014-Feb-23 10:33N 01°18' E 103°39'0 0.0
2014-Feb-23 09:33N 01°18' E 103°39'0 0.0
2014-Feb-23 08:30N 01°18' E 103°39'0 0.0
2014-Feb-23 07:33N 01°18' E 103°39'0 0.0
2014-Feb-23 06:32N 01°18' E 103°39'0 0.0
2014-Feb-23 05:32N 01°18' E 103°39'0 0.0
2014-Feb-23 04:32N 01°18' E 103°39'0 0.0
2014-Feb-23 03:29N 01°18' E 103°39'0 0.0
2014-Feb-23 02:26N 01°18' E 103°39'0 0.0
2014-Feb-23 01:33N 01°18' E 103°39'0 0.0
2014-Feb-23 00:33N 01°18' E 103°39'0 0.0
2014-Feb-22 23:32N 01°18' E 103°39'0 0.0
2014-Feb-22 22:32N 01°18' E 103°39'0 0.0
2014-Feb-22 21:33N 01°18' E 103°39'0 0.0
2014-Feb-22 20:30N 01°18' E 103°39'0 0.0
2014-Feb-22 14:32N 01°18' E 103°39'0 0.0
2014-Feb-22 13:31N 01°18' E 103°39'0 0.0
2014-Feb-22 12:33N 01°18' E 103°39'0 0.0
2014-Feb-22 11:32N 01°18' E 103°39'0 0.0
2014-Feb-22 10:29N 01°18' E 103°39'0 0.0
2014-Feb-22 09:31N 01°18' E 103°39'0 0.0
2014-Feb-22 08:32N 01°18' E 103°39'0 0.0
2014-Feb-22 07:29N 01°18' E 103°39'0 0.0
2014-Feb-22 06:29N 01°18' E 103°39'0 0.0
2014-Feb-22 05:26N 01°18' E 103°39'0 0.0
2014-Feb-22 04:29N 01°18' E 103°39'0 0.0
2014-Feb-22 03:31N 01°18' E 103°39'0 0.0
2014-Feb-22 02:29N 01°18' E 103°39'0 0.0
2014-Feb-22 01:32N 01°18' E 103°39'0 0.0
2014-Feb-22 00:27N 01°18' E 103°39'0 0.0
2014-Feb-21 23:33N 01°18' E 103°39'0 0.0
2014-Feb-21 22:31N 01°18' E 103°39'0 0.0
2014-Feb-21 21:31N 01°18' E 103°39'0 0.0
2014-Feb-21 20:30N 01°18' E 103°39'0 0.0
2014-Feb-21 19:33N 01°18' E 103°39'0 0.0
2014-Feb-21 18:31N 01°18' E 103°39'0 0.0
2014-Feb-21 17:33N 01°18' E 103°39'0 0.0
2014-Feb-21 16:30N 01°18' E 103°39'0 0.0
2014-Feb-21 15:31N 01°18' E 103°39'0 0.0
2014-Feb-21 14:31N 01°18' E 103°39'0 0.0
2014-Feb-21 13:28N 01°18' E 103°39'0 0.0
2014-Feb-21 12:31N 01°18' E 103°39'0 0.0
2014-Feb-21 11:32N 01°18' E 103°39'0 0.0
2014-Feb-21 10:33N 01°18' E 103°39'0 0.0
2014-Feb-21 09:33N 01°18' E 103°39'0 0.0
2014-Feb-21 08:33N 01°18' E 103°39'0 0.0
2014-Feb-21 07:33N 01°18' E 103°39'0 0.0
2014-Feb-21 06:32N 01°18' E 103°39'0 0.0
2014-Feb-21 05:32N 01°18' E 103°39'0 0.0
2014-Feb-21 04:32N 01°18' E 103°39'0 0.0
2014-Feb-21 03:29N 01°18' E 103°39'0 0.0
2014-Feb-21 02:32N 01°18' E 103°39'0 0.0
2014-Feb-21 01:29N 01°18' E 103°39'0 0.0
2014-Feb-21 00:28N 01°18' E 103°39'0 0.0
2014-Feb-20 23:32N 01°18' E 103°39'0 0.0
2014-Feb-20 22:32N 01°18' E 103°39'0 0.0
2014-Feb-20 21:32N 01°18' E 103°39'0 0.0
2014-Feb-20 20:29N 01°18' E 103°39'0 0.0
2014-Feb-20 19:32N 01°18' E 103°39'0 0.0
2014-Feb-20 18:32N 01°18' E 103°39'0 0.0
2014-Feb-20 17:29N 01°18' E 103°39'0 0.0
2014-Feb-20 16:32N 01°18' E 103°39'0 0.0
2014-Feb-20 15:31N 01°18' E 103°39'0 0.0
2014-Feb-20 14:31N 01°18' E 103°39'0 0.0
2014-Feb-20 13:28N 01°18' E 103°39'0 0.0
2014-Feb-20 12:34N 01°18' E 103°39'0 0.0
2014-Feb-20 11:30N 01°18' E 103°39'0 0.0
2014-Feb-20 10:33N 01°18' E 103°39'0 0.0
2014-Feb-20 09:32N 01°18' E 103°39'0 0.0
2014-Feb-20 08:32N 01°18' E 103°39'0 0.0
2014-Feb-20 07:32N 01°18' E 103°39'0 0.0
2014-Feb-20 06:31N 01°18' E 103°39'0 0.0
2014-Feb-20 05:31N 01°18' E 103°39'0 0.0
2014-Feb-20 04:28N 01°18' E 103°39'0 0.0
2014-Feb-20 03:30N 01°18' E 103°39'0 0.0
2014-Feb-20 02:31N 01°18' E 103°39'0 0.0
2014-Feb-20 01:33N 01°18' E 103°39'0 0.0
2014-Feb-20 00:33N 01°18' E 103°39'0 0.0
2014-Feb-19 23:33N 01°18' E 103°39'0 0.0
2014-Feb-19 22:33N 01°18' E 103°39'0 0.0
2014-Feb-19 21:32N 01°18' E 103°39'0 0.0
2014-Feb-19 20:33N 01°18' E 103°39'0 0.0
2014-Feb-19 19:33N 01°18' E 103°39'0 0.0
2014-Feb-19 18:33N 01°18' E 103°39'0 0.0
2014-Feb-19 17:33N 01°18' E 103°39'0 0.0
2014-Feb-19 16:33N 01°18' E 103°39'0 0.0
2014-Feb-19 15:30N 01°18' E 103°39'0 0.0
2014-Feb-19 14:27N 01°18' E 103°39'0 0.0
2014-Feb-19 13:30N 01°18' E 103°39'0 0.0
2014-Feb-19 12:33N 01°18' E 103°39'0 0.0
2014-Feb-19 11:32N 01°18' E 103°39'0 0.0
2014-Feb-19 10:32N 01°18' E 103°39'0 0.0
2014-Feb-19 09:32N 01°18' E 103°39'0 0.0
2014-Feb-19 08:31N 01°18' E 103°39'0 0.0
2014-Feb-19 07:31N 01°18' E 103°39'0 0.0
2014-Feb-19 06:31N 01°18' E 103°39'0 0.0
2014-Feb-19 05:33N 01°18' E 103°39'0 0.0
2014-Feb-19 04:33N 01°18' E 103°39'0 0.0
2014-Feb-19 03:33N 01°18' E 103°39'0 0.0
2014-Feb-19 02:33N 01°18' E 103°39'0 0.0
2014-Feb-19 01:33N 01°18' E 103°39'0 0.0
2014-Feb-19 00:32N 01°18' E 103°39'0 0.0
2014-Feb-18 23:32N 01°18' E 103°39'0 0.0
2014-Feb-18 22:32N 01°18' E 103°39'0 0.0
2014-Feb-18 21:29N 01°18' E 103°39'0 0.0
2014-Feb-18 20:32N 01°18' E 103°39'0 0.0
2014-Feb-18 19:29N 01°18' E 103°39'0 0.0
2014-Feb-18 18:31N 01°18' E 103°39'0 0.0
2014-Feb-18 17:22N 01°18' E 103°39'0 0.0
2014-Feb-18 16:31N 01°18' E 103°39'0 0.0
2014-Feb-18 15:34N 01°18' E 103°39'0 0.0
2014-Feb-18 14:30N 01°18' E 103°39'0 0.0
2014-Feb-18 13:33N 01°18' E 103°39'0 0.0
2014-Feb-18 12:33N 01°18' E 103°39'0 0.0
2014-Feb-18 11:31N 01°18' E 103°39'  

Dump ship's entire track history

sailing weather and tide predictions

Evnia — 5BJG3 — position and weather